Time;durP1;ratioP1;P1;durP2;ratioP2;P2;SDS_P1;SDS_P2;PMS_P1;PMS_P2;Temp;Humidity;BMP_temperature;BMP_pressure;BME280_temperature;BME280_humidity;BME280_pressure;Samples;Min_cycle;Max_cycle;Signal;HPM_P1;HPM_P2
2022/11/16 00:00:10;;;;;;;0.00;0.00;;;;;;;9.81;100.00;97363.22;4891334;29;20230;-61
2022/11/16 00:02:37;;;;;;;0.00;0.00;;;;;;;9.80;100.00;97371.25;4891300;29;20239;-61
2022/11/16 00:05:04;;;;;;;0.00;0.00;;;;;;;9.75;100.00;97371.75;4837577;29;20252;-61
2022/11/16 00:07:31;;;;;;;0.00;0.00;;;;;;;9.74;100.00;97375.34;4883581;29;20238;-61
2022/11/16 00:09:59;;;;;;;0.00;0.00;;;;;;;9.74;100.00;97367.53;4788491;29;20757;-61
2022/11/16 00:15:14;;;;;;;0.00;0.00;;;;;;;9.73;100.00;97366.72;5697069;23;20722;-59
2022/11/16 00:17:45;;;;;;;0.00;0.00;;;;;;;9.72;100.00;97361.69;4903769;29;20720;-59
2022/11/16 00:20:12;;;;;;;0.00;0.00;;;;;;;9.65;100.00;97366.81;4903108;29;20597;-59
2022/11/16 00:22:38;;;;;;;0.00;0.00;;;;;;;9.66;100.00;97370.19;4907207;29;20591;-58
2022/11/16 00:25:07;;;;;;;0.00;0.00;;;;;;;9.71;100.00;97368.69;4902437;29;20232;-59
2022/11/16 00:27:34;;;;;;;0.00;0.00;;;;;;;9.59;100.00;97372.72;4906266;29;20232;-59
2022/11/16 00:30:01;;;;;;;0.00;0.00;;;;;;;9.59;100.00;97377.91;4886358;28;20602;-59
2022/11/16 00:32:28;;;;;;;0.00;0.00;;;;;;;9.51;100.00;97368.38;4904864;29;20220;-59
2022/11/16 00:34:54;;;;;;;0.00;0.00;;;;;;;9.54;100.00;97369.81;4886008;29;20240;-59
2022/11/16 00:37:21;;;;;;;0.00;0.00;;;;;;;9.53;100.00;97363.00;4888909;29;20235;-58
2022/11/16 00:39:48;;;;;;;0.00;0.00;;;;;;;9.49;100.00;97366.94;4906604;29;20236;-59
2022/11/16 00:42:16;;;;;;;0.00;0.00;;;;;;;9.51;100.00;97372.78;4887119;29;20245;-59
2022/11/16 00:44:46;;;;;;;0.00;0.00;;;;;;;9.51;100.00;97367.56;4889330;29;20236;-58
2022/11/16 00:47:16;;;;;;;0.00;0.00;;;;;;;9.51;100.00;97354.53;4887090;29;20729;-59
2022/11/16 00:49:43;;;;;;;0.00;0.00;;;;;;;9.55;100.00;97361.81;4873785;29;20244;-59
2022/11/16 00:52:12;;;;;;;0.00;0.00;;;;;;;9.52;100.00;97357.00;4889220;29;20260;-59
2022/11/16 00:54:39;;;;;;;0.00;0.00;;;;;;;9.52;100.00;97350.94;4907349;29;20239;-59
2022/11/16 00:57:06;;;;;;;0.00;0.00;;;;;;;9.56;100.00;97354.81;4883552;29;20234;-59
2022/11/16 00:59:34;;;;;;;0.00;0.00;;;;;;;9.51;100.00;97350.16;4888532;29;20327;-60
2022/11/16 01:02:00;;;;;;;0.00;0.00;;;;;;;9.49;100.00;97346.91;4904765;29;20221;-58
2022/11/16 01:04:27;;;;;;;0.00;0.00;;;;;;;9.51;100.00;97347.56;4888422;29;20244;-59
2022/11/16 01:06:54;;;;;;;0.00;0.00;;;;;;;9.52;100.00;97346.56;4901742;29;20239;-59
2022/11/16 01:09:24;;;;;;;0.00;0.00;;;;;;;9.53;100.00;97342.16;4887864;29;20232;-59
2022/11/16 01:12:09;;;;;;;0.00;0.00;;;;;;;9.51;100.00;97333.69;4905036;29;20237;-58
2022/11/16 01:14:40;;;;;;;0.00;0.00;;;;;;;9.51;100.00;97341.50;4886809;29;20721;-58
2022/11/16 01:17:07;;;;;;;0.00;0.00;;;;;;;9.51;100.00;97339.72;4901210;29;20248;-58
2022/11/16 01:19:34;;;;;;;0.00;0.00;;;;;;;9.52;100.00;97330.94;4888811;29;20232;-58
2022/11/16 01:22:00;;;;;;;0.00;0.00;;;;;;;9.52;100.00;97325.72;4883376;29;20236;-58
2022/11/16 01:24:28;;;;;;;0.00;0.00;;;;;;;9.48;100.00;97324.47;4900148;29;20254;-58
2022/11/16 01:26:55;;;;;;;0.00;0.00;;;;;;;9.47;100.00;97324.63;4904041;29;20237;-58
2022/11/16 01:29:25;;;;;;;0.00;0.00;;;;;;;9.49;100.00;97331.28;4888008;29;20232;-58
2022/11/16 01:31:57;;;;;;;0.00;0.00;;;;;;;9.49;100.00;97338.28;4887045;29;20231;-60
2022/11/16 01:34:24;;;;;;;0.00;0.00;;;;;;;9.48;100.00;97344.47;4886914;29;20692;-60
2022/11/16 01:36:54;;;;;;;0.00;0.00;;;;;;;9.47;100.00;97355.88;4893117;29;20552;-60
2022/11/16 01:39:25;;;;;;;0.00;0.00;;;;;;;9.49;100.00;97357.34;4883911;29;20864;-59
2022/11/16 01:41:56;;;;;;;0.00;0.00;;;;;;;9.53;100.00;97356.00;4908402;29;20707;-59
2022/11/16 01:45:08;;;;;;;0.00;0.00;;;;;;;9.48;100.00;97360.94;4896695;29;20324;-59
2022/11/16 01:47:37;;;;;;;0.00;0.00;;;;;;;9.52;100.00;97357.00;4852565;29;20301;-59
2022/11/16 01:50:08;;;;;;;0.00;0.00;;;;;;;9.51;100.00;97355.38;4908835;29;20223;-59
2022/11/16 01:52:40;;;;;;;0.00;0.00;;;;;;;9.54;100.00;97354.97;4889070;29;20334;-59
2022/11/16 01:55:08;;;;;;;0.00;0.00;;;;;;;9.53;100.00;97353.41;4904916;29;20248;-59
2022/11/16 01:57:55;;;;;;;0.00;0.00;;;;;;;9.51;100.00;97352.75;4905851;29;20596;-60
2022/11/16 02:00:22;;;;;;;0.00;0.00;;;;;;;9.52;100.00;97356.16;4891731;29;20300;-60
2022/11/16 02:03:01;;;;;;;0.00;0.00;;;;;;;9.57;100.00;97364.25;4891155;29;20231;-60
2022/11/16 02:05:56;;;;;;;0.00;0.00;;;;;;;9.53;100.00;97368.19;4893884;29;20623;-60
2022/11/16 02:11:38;;;;;;;0.00;0.00;;;;;;;9.50;100.00;97407.63;4902878;29;20692;-60
2022/11/16 02:14:20;;;;;;;0.00;0.00;;;;;;;9.44;100.00;97419.56;4906543;29;20732;-59
2022/11/16 02:16:53;;;;;;;0.00;0.00;;;;;;;9.44;100.00;97417.75;4890438;29;20980;-59
2022/11/16 02:19:51;;;;;;;0.00;0.00;;;;;;;9.41;100.00;97412.09;4907964;29;20223;-60
2022/11/16 02:22:27;;;;;;;0.00;0.00;;;;;;;9.40;100.00;97421.69;4894391;29;20421;-60
2022/11/16 02:25:02;;;;;;;0.00;0.00;;;;;;;9.42;100.00;97403.28;4909206;29;20254;-60
2022/11/16 02:27:48;;;;;;;0.00;0.00;;;;;;;9.49;100.00;97406.00;4895899;29;20255;-59
2022/11/16 02:30:19;;;;;;;0.00;0.00;;;;;;;9.49;100.00;97409.44;4906957;29;20239;-60
2022/11/16 02:32:51;;;;;;;0.00;0.00;;;;;;;9.51;100.00;97391.84;4882074;29;20220;-60
2022/11/16 02:35:24;;;;;;;0.00;0.00;;;;;;;9.53;100.00;97373.41;4907751;29;20784;-59
2022/11/16 02:37:56;;;;;;;0.00;0.00;;;;;;;9.65;100.00;97373.78;4908142;29;20303;-59
2022/11/16 02:40:26;;;;;;;0.00;0.00;;;;;;;9.69;100.00;97378.50;4908334;29;20220;-60
2022/11/16 02:42:59;;;;;;;0.00;0.00;;;;;;;9.77;100.00;97385.41;4880163;29;20232;-60
2022/11/16 02:45:32;;;;;;;0.00;0.00;;;;;;;9.81;100.00;97384.06;4893279;29;20231;-59
2022/11/16 02:48:04;;;;;;;0.00;0.00;;;;;;;9.87;100.00;97385.19;4890291;29;20696;-60
2022/11/16 02:50:33;;;;;;;0.00;0.00;;;;;;;9.93;100.00;97394.91;4900045;29;20707;-60
2022/11/16 02:52:59;;;;;;;0.00;0.00;;;;;;;9.95;100.00;97397.31;4905064;29;20639;-59
2022/11/16 02:55:33;;;;;;;0.00;0.00;;;;;;;9.87;100.00;97404.22;4897017;29;20246;-60
2022/11/16 02:58:03;;;;;;;0.00;0.00;;;;;;;9.89;100.00;97388.44;4890930;29;20232;-60
2022/11/16 03:00:42;;;;;;;0.00;0.00;;;;;;;9.87;100.00;97383.38;4892815;29;20585;-59
2022/11/16 03:03:22;;;;;;;0.00;0.00;;;;;;;9.86;100.00;97391.38;4906045;29;23505;-59
2022/11/16 03:05:52;;;;;;;0.00;0.00;;;;;;;9.91;100.00;97389.06;4911332;29;20248;-60
2022/11/16 03:08:23;;;;;;;0.00;0.00;;;;;;;9.95;100.00;97397.31;4905339;29;20307;-60
2022/11/16 03:13:48;;;;;;;0.00;0.00;;;;;;;10.00;100.00;97381.97;4868146;29;20721;-60
2022/11/16 03:16:20;;;;;;;0.00;0.00;;;;;;;10.02;100.00;97388.63;4907319;29;20664;-59
2022/11/16 03:18:48;;;;;;;0.00;0.00;;;;;;;10.04;100.00;97388.44;4908946;29;20226;-59
2022/11/16 03:21:23;;;;;;;0.00;0.00;;;;;;;10.08;100.00;97392.31;4908090;29;20356;-60
2022/11/16 03:23:50;;;;;;;0.00;0.00;;;;;;;10.10;100.00;97379.91;4893248;29;20594;-60
2022/11/16 03:26:22;;;;;;;0.00;0.00;;;;;;;10.11;100.00;97378.09;4890989;29;20324;-59
2022/11/16 03:28:55;;;;;;;0.00;0.00;;;;;;;10.10;100.00;97385.13;4890472;29;20240;-58
2022/11/16 03:31:28;;;;;;;0.00;0.00;;;;;;;10.10;100.00;97381.69;4904843;29;20230;-60
2022/11/16 03:34:00;;;;;;;0.00;0.00;;;;;;;10.11;100.00;97367.66;4903573;29;20639;-61
2022/11/16 03:36:31;;;;;;;0.00;0.00;;;;;;;10.13;100.00;97347.44;4890898;29;20266;-60
2022/11/16 03:39:04;;;;;;;0.00;0.00;;;;;;;10.15;100.00;97356.72;4893600;29;20235;-59
2022/11/16 03:41:37;;;;;;;0.00;0.00;;;;;;;10.16;100.00;97376.59;4910561;29;20231;-60
2022/11/16 03:44:04;;;;;;;0.00;0.00;;;;;;;10.17;100.00;97390.41;4897321;29;20229;-60
2022/11/16 03:46:32;;;;;;;0.00;0.00;;;;;;;10.16;100.00;97383.59;4900684;29;20269;-59
2022/11/16 03:49:00;;;;;;;0.00;0.00;;;;;;;10.11;100.00;97386.75;4908151;29;20618;-59
2022/11/16 03:51:31;;;;;;;0.00;0.00;;;;;;;10.12;100.00;97377.09;4896116;29;20247;-60
2022/11/16 03:53:58;;;;;;;0.00;0.00;;;;;;;10.13;100.00;97373.50;4892179;29;20639;-60
2022/11/16 03:56:24;;;;;;;0.00;0.00;;;;;;;10.16;100.00;97375.75;4879827;29;20691;-60
2022/11/16 03:58:51;;;;;;;0.00;0.00;;;;;;;10.18;100.00;97384.22;4887501;29;20243;-60
2022/11/16 04:01:18;;;;;;;0.00;0.00;;;;;;;10.19;100.00;97384.06;4909311;29;20815;-59
2022/11/16 04:03:48;;;;;;;0.00;0.00;;;;;;;10.18;100.00;97385.03;4892218;29;20300;-59
2022/11/16 04:25:41;;;;;;;0.00;0.00;;;;;;;10.32;100.00;97380.00;4906159;29;20726;-60
2022/11/16 04:28:20;;;;;;;0.00;0.00;;;;;;;10.40;100.00;97389.56;4908770;29;20241;-59
2022/11/16 04:39:05;;;;;;;0.00;0.00;;;;;;;10.29;100.00;97381.16;4906000;29;20250;-57
2022/11/16 04:44:18;;;;;;;0.00;0.00;;;;;;;10.37;100.00;97382.06;4893372;29;20826;-58
2022/11/16 04:49:31;;;;;;;0.00;0.00;;;;;;;10.32;100.00;97386.03;4890702;29;20230;-57
2022/11/16 04:52:00;;;;;;;0.00;0.00;;;;;;;10.38;100.00;97381.91;4904671;29;20238;-58
2022/11/16 04:54:29;;;;;;;0.00;0.00;;;;;;;10.41;100.00;97383.34;4896793;29;20252;-57
2022/11/16 04:56:56;;;;;;;0.00;0.00;;;;;;;10.42;100.00;97391.00;4901281;29;20596;-58
2022/11/16 04:59:24;;;;;;;0.00;0.00;;;;;;;10.42;100.00;97385.81;4908867;29;20256;-57
2022/11/16 05:02:09;;;;;;;0.00;0.00;;;;;;;10.42;100.00;97392.81;4907613;29;20244;-58
2022/11/16 05:04:44;;;;;;;0.00;0.00;;;;;;;10.39;100.00;97385.31;4900537;29;20875;-57
2022/11/16 05:07:15;;;;;;;0.00;0.00;;;;;;;10.43;100.00;97384.81;4905933;29;20245;-57
2022/11/16 05:09:46;;;;;;;0.00;0.00;;;;;;;10.41;100.00;97392.00;4908549;29;20249;-57
2022/11/16 05:12:15;;;;;;;0.00;0.00;;;;;;;10.44;100.00;97396.03;4894357;29;20720;-58
2022/11/16 05:14:43;;;;;;;0.00;0.00;;;;;;;10.47;100.00;97391.28;4895337;29;20256;-58
2022/11/16 05:17:12;;;;;;;0.00;0.00;;;;;;;10.49;100.00;97401.53;4895832;29;20246;-56
2022/11/16 05:22:27;;;;;;;0.00;0.00;;;;;;;10.46;100.00;97414.94;4905554;29;20583;-57
2022/11/16 05:24:55;;;;;;;0.00;0.00;;;;;;;10.45;100.00;97413.31;4897634;29;20248;-57
2022/11/16 05:27:24;;;;;;;0.00;0.00;;;;;;;10.50;100.00;97420.63;4908250;29;20232;-57
2022/11/16 05:29:53;;;;;;;0.00;0.00;;;;;;;10.51;100.00;97424.84;4905950;29;20606;-58
2022/11/16 05:32:23;;;;;;;0.00;0.00;;;;;;;10.46;100.00;97426.19;4897186;29;20233;-58
2022/11/16 05:34:50;;;;;;;0.00;0.00;;;;;;;10.43;100.00;97426.53;4923130;29;20217;-57
2022/11/16 05:37:19;;;;;;;0.00;0.00;;;;;;;10.44;100.00;97433.38;4914043;29;21703;-57
2022/11/16 05:39:48;;;;;;;0.00;0.00;;;;;;;10.33;100.00;97433.78;4909897;29;20707;-57
2022/11/16 05:42:16;;;;;;;0.00;0.00;;;;;;;10.29;100.00;97441.16;4906975;29;20252;-58
2022/11/16 05:44:43;;;;;;;0.00;0.00;;;;;;;10.24;100.00;97442.69;4915769;29;20248;-57
2022/11/16 05:47:10;;;;;;;0.00;0.00;;;;;;;10.15;100.00;97440.16;4904892;29;20806;-57
2022/11/16 05:49:37;;;;;;;0.00;0.00;;;;;;;10.04;100.00;97435.38;4910457;29;20229;-57
2022/11/16 05:52:04;;;;;;;0.00;0.00;;;;;;;10.00;100.00;97445.34;4905282;29;20247;-57
2022/11/16 05:54:31;;;;;;;0.00;0.00;;;;;;;9.98;100.00;97449.09;4908531;29;20233;-58
2022/11/16 05:56:59;;;;;;;0.00;0.00;;;;;;;9.96;100.00;97451.06;4907982;29;20232;-58
2022/11/16 05:59:26;;;;;;;0.00;0.00;;;;;;;9.95;100.00;97444.25;4921989;29;20306;-56
2022/11/16 06:01:56;;;;;;;0.00;0.00;;;;;;;9.94;100.00;97453.03;4909130;29;20229;-57
2022/11/16 06:04:23;;;;;;;0.00;0.00;;;;;;;9.89;100.00;97443.97;4907722;29;20319;-57
2022/11/16 06:06:50;;;;;;;0.00;0.00;;;;;;;9.92;100.00;97452.41;4907380;29;20798;-58
2022/11/16 06:09:18;;;;;;;0.00;0.00;;;;;;;9.90;100.00;97457.81;4921363;29;20691;-57
2022/11/16 06:11:46;;;;;;;0.00;0.00;;;;;;;9.91;100.00;97454.22;4914873;29;20278;-57
2022/11/16 06:14:14;;;;;;;0.00;0.00;;;;;;;9.87;100.00;97456.34;4903991;29;20248;-58
2022/11/16 06:16:40;;;;;;;0.00;0.00;;;;;;;9.86;100.00;97452.13;4896565;29;20221;-56
2022/11/16 06:19:12;;;;;;;0.00;0.00;;;;;;;9.84;100.00;97450.69;4907146;29;20240;-58
2022/11/16 06:21:38;;;;;;;0.00;0.00;;;;;;;9.83;100.00;97462.09;4897217;29;20224;-57
2022/11/16 06:24:12;;;;;;;0.00;0.00;;;;;;;9.83;100.00;97460.28;4904509;29;20232;-58
2022/11/16 06:26:40;;;;;;;0.00;0.00;;;;;;;9.83;100.00;97462.91;4907358;29;20229;-58
2022/11/16 06:29:07;;;;;;;0.00;0.00;;;;;;;9.79;100.00;97456.41;4909673;29;20232;-55
2022/11/16 06:31:36;;;;;;;0.00;0.00;;;;;;;9.80;100.00;97452.81;4890743;29;20228;-58
2022/11/16 06:34:06;;;;;;;0.00;0.00;;;;;;;9.78;100.00;97457.41;4898538;29;20284;-59
2022/11/16 06:36:33;;;;;;;0.00;0.00;;;;;;;9.80;100.00;97463.25;4901777;29;20276;-58
2022/11/16 06:39:00;;;;;;;0.00;0.00;;;;;;;9.76;100.00;97459.38;4906275;29;20228;-57
2022/11/16 06:41:29;;;;;;;0.00;0.00;;;;;;;9.77;100.00;97453.16;4890264;29;20241;-58
2022/11/16 06:43:56;;;;;;;0.00;0.00;;;;;;;9.76;100.00;97454.16;4891674;29;20308;-58
2022/11/16 06:46:29;;;;;;;0.00;0.00;;;;;;;9.74;100.00;97459.56;4904991;29;20231;-58
2022/11/16 06:48:58;;;;;;;0.00;0.00;;;;;;;9.76;100.00;97464.56;4905453;29;20232;-58
2022/11/16 06:51:28;;;;;;;0.00;0.00;;;;;;;9.78;100.00;97474.84;4922873;29;20304;-58
2022/11/16 06:53:54;;;;;;;0.00;0.00;;;;;;;9.79;100.00;97472.06;4904617;29;20589;-58
2022/11/16 06:56:22;;;;;;;0.00;0.00;;;;;;;9.82;100.00;97465.69;4907185;29;20239;-57
2022/11/16 06:58:55;;;;;;;0.00;0.00;;;;;;;9.79;100.00;97463.44;4905854;29;20701;-57
2022/11/16 07:01:23;;;;;;;0.00;0.00;;;;;;;9.76;100.00;97469.78;4907049;29;20240;-54
2022/11/16 07:03:59;;;;;;;0.00;0.00;;;;;;;9.74;100.00;97476.97;4903078;29;20252;-56
2022/11/16 07:06:27;;;;;;;0.00;0.00;;;;;;;9.77;100.00;97476.63;4893694;29;20236;-56
2022/11/16 07:08:58;;;;;;;0.00;0.00;;;;;;;9.81;100.00;97485.72;4904424;29;20719;-56
2022/11/16 07:11:29;;;;;;;0.00;0.00;;;;;;;9.87;100.00;97482.41;4908344;29;20348;-55
2022/11/16 07:13:58;;;;;;;0.00;0.00;;;;;;;9.89;100.00;97490.88;4914419;29;20224;-56
2022/11/16 07:16:25;;;;;;;0.00;0.00;;;;;;;9.95;100.00;97486.78;4910831;29;20236;-56
2022/11/16 07:18:58;;;;;;;0.00;0.00;;;;;;;10.04;100.00;97497.94;4914364;29;20240;-56
2022/11/16 07:21:28;;;;;;;0.00;0.00;;;;;;;10.10;100.00;97501.63;4911535;29;20299;-54
2022/11/16 07:23:56;;;;;;;0.00;0.00;;;;;;;10.09;100.00;97500.00;4908149;29;20680;-55
2022/11/16 07:26:23;;;;;;;0.00;0.00;;;;;;;10.13;100.00;97501.28;4910879;29;20242;-56
2022/11/16 07:29:01;;;;;;;0.00;0.00;;;;;;;10.10;100.00;97507.66;4912325;29;20246;-55
2022/11/16 07:31:29;;;;;;;0.00;0.00;;;;;;;10.11;100.00;97506.69;4926342;29;20248;-55
2022/11/16 07:34:25;;;;;;;0.00;0.00;;;;;;;10.15;100.00;97507.94;4898868;29;20240;-54
2022/11/16 07:37:09;;;;;;;0.00;0.00;;;;;;;10.19;100.00;97514.44;4914511;29;20262;-55
2022/11/16 07:39:35;;;;;;;0.00;0.00;;;;;;;10.23;100.00;97519.31;4910733;29;20244;-55
2022/11/16 07:42:10;;;;;;;0.00;0.00;;;;;;;10.24;100.00;97524.31;4908324;29;20241;-54
2022/11/16 07:44:55;;;;;;;0.00;0.00;;;;;;;10.30;100.00;97521.03;4908906;29;20441;-54
2022/11/16 07:47:22;;;;;;;0.00;0.00;;;;;;;10.26;100.00;97524.97;4910093;29;20229;-54
2022/11/16 07:49:49;;;;;;;0.00;0.00;;;;;;;10.29;100.00;97523.81;4909479;29;20261;-56
2022/11/16 07:52:20;;;;;;;0.00;0.00;;;;;;;10.32;100.00;97529.47;4907872;29;20320;-54
2022/11/16 07:54:56;;;;;;;0.00;0.00;;;;;;;10.31;100.00;97535.69;4907371;29;20240;-56
2022/11/16 07:57:25;;;;;;;0.00;0.00;;;;;;;10.31;100.00;97519.22;4900004;29;20237;-56
2022/11/16 07:59:53;;;;;;;0.00;0.00;;;;;;;10.42;100.00;97520.63;4907202;29;20232;-54
2022/11/16 08:02:20;;;;;;;0.00;0.00;;;;;;;10.51;100.00;97527.38;4911081;29;20254;-56
2022/11/16 08:04:49;;;;;;;0.00;0.00;;;;;;;10.54;100.00;97524.44;4924704;29;20293;-55
2022/11/16 08:07:15;;;;;;;0.00;0.00;;;;;;;10.54;100.00;97534.06;4925064;29;20312;-56
2022/11/16 08:09:51;;;;;;;0.00;0.00;;;;;;;10.60;100.00;97531.53;4910788;29;20278;-57
2022/11/16 08:12:18;;;;;;;0.00;0.00;;;;;;;10.60;100.00;97526.31;4889988;29;20246;-55
2022/11/16 08:14:44;;;;;;;0.00;0.00;;;;;;;10.58;98.49;97530.13;4912480;29;20249;-56
2022/11/16 08:17:12;;;;;;;0.00;0.00;;;;;;;10.53;99.67;97535.84;4913525;29;20248;-57
2022/11/16 08:19:41;;;;;;;0.00;0.00;;;;;;;10.47;100.00;97532.16;4918707;29;20265;-57
2022/11/16 08:22:08;;;;;;;0.00;0.00;;;;;;;10.40;100.00;97538.25;4912265;29;20247;-57
2022/11/16 08:24:35;;;;;;;0.00;0.00;;;;;;;10.40;100.00;97536.47;4923105;29;20638;-57
2022/11/16 08:27:03;;;;;;;0.00;0.00;;;;;;;10.52;100.00;97536.03;4912276;29;20302;-56
2022/11/16 08:29:30;;;;;;;0.00;0.00;;;;;;;10.47;100.00;97542.59;4914391;29;20248;-56
2022/11/16 08:31:58;;;;;;;0.00;0.00;;;;;;;10.52;100.00;97533.44;4908845;29;20239;-56
2022/11/16 08:34:24;;;;;;;0.00;0.00;;;;;;;10.51;100.00;97535.22;4924004;29;20214;-55
2022/11/16 08:36:57;;;;;;;0.00;0.00;;;;;;;10.51;100.00;97540.44;4909166;29;20246;-54
2022/11/16 08:39:30;;;;;;;0.00;0.00;;;;;;;10.54;100.00;97542.69;4908670;29;20226;-54
2022/11/16 08:41:58;;;;;;;0.00;0.00;;;;;;;10.57;98.32;97542.34;4895672;29;20248;-56
2022/11/16 08:44:25;;;;;;;0.00;0.00;;;;;;;10.69;99.52;97537.47;4912488;29;20224;-55
2022/11/16 08:46:55;;;;;;;0.00;0.00;;;;;;;10.78;100.00;97536.41;4914117;29;20225;-55
2022/11/16 08:49:42;;;;;;;0.00;0.00;;;;;;;10.87;98.44;97536.34;4909078;29;20313;-57
2022/11/16 08:52:08;;;;;;;0.00;0.00;;;;;;;10.96;100.00;97526.63;4909414;29;20944;-57
2022/11/16 08:54:35;;;;;;;0.00;0.00;;;;;;;11.05;99.44;97533.38;4910421;29;20229;-56
2022/11/16 08:57:02;;;;;;;0.00;0.00;;;;;;;10.96;99.50;97540.47;4914016;29;20255;-57
2022/11/16 08:59:32;;;;;;;0.00;0.00;;;;;;;10.95;100.00;97535.44;4916751;29;20241;-57
2022/11/16 09:02:05;;;;;;;0.00;0.00;;;;;;;10.85;100.00;97533.91;4905556;29;20257;-57
2022/11/16 09:04:31;;;;;;;0.00;0.00;;;;;;;10.76;100.00;97533.16;4909769;29;20238;-57
2022/11/16 09:06:58;;;;;;;0.00;0.00;;;;;;;10.66;100.00;97530.00;4905658;29;20591;-57
2022/11/16 09:09:25;;;;;;;0.00;0.00;;;;;;;10.67;100.00;97534.25;4910265;29;20704;-57
2022/11/16 09:11:54;;;;;;;0.00;0.00;;;;;;;10.61;100.00;97527.94;4910000;29;20249;-55
2022/11/16 09:14:21;;;;;;;0.00;0.00;;;;;;;10.62;100.00;97528.75;4907674;29;20230;-54
2022/11/16 09:16:49;;;;;;;0.00;0.00;;;;;;;10.62;100.00;97529.56;4910224;29;20787;-56
2022/11/16 09:19:16;;;;;;;0.00;0.00;;;;;;;10.62;100.00;97528.75;4907290;29;20260;-54
2022/11/16 09:21:44;;;;;;;0.00;0.00;;;;;;;10.70;100.00;97533.88;4908834;29;20272;-55
2022/11/16 09:24:11;;;;;;;0.00;0.00;;;;;;;10.74;100.00;97542.19;4906358;29;20238;-55
2022/11/16 09:26:38;;;;;;;0.00;0.00;;;;;;;10.77;100.00;97544.44;4908868;29;20249;-53
2022/11/16 09:29:04;;;;;;;0.00;0.00;;;;;;;10.89;100.00;97550.00;4906197;29;20284;-54
2022/11/16 09:31:33;;;;;;;0.00;0.00;;;;;;;10.99;100.00;97549.75;4908948;29;20248;-53
2022/11/16 09:34:01;;;;;;;0.00;0.00;;;;;;;10.92;100.00;97555.72;4907413;29;20235;-55
2022/11/16 09:36:29;;;;;;;0.00;0.00;;;;;;;10.89;100.00;97550.00;4908938;29;20293;-54
2022/11/16 09:38:56;;;;;;;0.00;0.00;;;;;;;10.80;99.66;97551.09;4906908;29;20704;-55
2022/11/16 09:41:49;;;;;;;0.00;0.00;;;;;;;10.80;97.55;97551.09;4909810;29;20296;-55
2022/11/16 09:44:37;;;;;;;0.00;0.00;;;;;;;10.69;96.85;97545.31;4906361;29;20226;-53
2022/11/16 09:47:10;;;;;;;0.00;0.00;;;;;;;10.63;100.00;97561.69;4906002;29;20314;-55
2022/11/16 09:49:42;;;;;;;0.00;0.00;;;;;;;10.56;98.62;97548.53;4908018;29;20230;-54
2022/11/16 09:52:16;;;;;;;0.00;0.00;;;;;;;10.55;98.79;97554.75;4905706;29;20226;-55
2022/11/16 09:54:44;;;;;;;0.00;0.00;;;;;;;10.51;100.00;97553.47;4908072;29;20277;-55
2022/11/16 09:57:16;;;;;;;0.00;0.00;;;;;;;10.51;100.00;97547.47;4905734;29;20289;-55
2022/11/16 09:59:47;;;;;;;0.00;0.00;;;;;;;10.55;100.00;97544.31;4909078;29;20233;-57
2022/11/16 10:02:21;;;;;;;0.00;0.00;;;;;;;10.69;100.00;97552.34;4905704;29;20250;-56
2022/11/16 10:04:53;;;;;;;0.00;0.00;;;;;;;10.69;100.00;97549.75;4909780;29;20240;-56
2022/11/16 10:07:24;;;;;;;0.00;0.00;;;;;;;10.67;99.16;97541.28;4907222;29;20249;-56
2022/11/16 10:09:51;;;;;;;0.00;0.00;;;;;;;10.69;98.67;97545.31;4899767;29;20247;-57
2022/11/16 10:12:26;;;;;;;0.00;0.00;;;;;;;10.75;99.33;97539.38;4906827;29;20244;-56
2022/11/16 10:15:11;;;;;;;0.00;0.00;;;;;;;10.82;99.20;97544.72;4907541;29;20300;-56
2022/11/16 10:17:52;;;;;;;0.00;0.00;;;;;;;10.87;98.42;97542.38;4907092;29;20322;-55
2022/11/16 10:20:44;;;;;;;0.00;0.00;;;;;;;10.98;99.56;97542.94;4906402;29;20240;-56
2022/11/16 10:23:22;;;;;;;0.00;0.00;;;;;;;11.11;97.42;97532.66;4906645;29;20952;-56
2022/11/16 10:25:54;;;;;;;0.00;0.00;;;;;;;11.22;95.95;97534.78;4908733;29;20286;-53
2022/11/16 10:28:33;;;;;;;0.00;0.00;;;;;;;11.26;97.04;97522.19;4907281;29;20247;-55
2022/11/16 10:31:07;;;;;;;0.00;0.00;;;;;;;11.30;96.78;97526.06;4906566;29;20249;-55
2022/11/16 10:33:36;;;;;;;0.00;0.00;;;;;;;11.49;97.32;97529.09;4908752;29;20245;-54
2022/11/16 10:36:10;;;;;;;0.00;0.00;;;;;;;11.60;92.36;97528.63;4904346;29;20238;-55
2022/11/16 10:38:37;;;;;;;0.00;0.00;;;;;;;11.62;94.82;97523.19;4907227;29;20242;-53
2022/11/16 10:41:16;;;;;;;0.00;0.00;;;;;;;11.63;94.49;97530.84;4905468;29;20238;-54
2022/11/16 10:43:44;;;;;;;0.00;0.00;;;;;;;11.54;92.30;97528.53;4888275;29;20238;-55
2022/11/16 10:46:18;;;;;;;0.00;0.00;;;;;;;11.61;87.98;97518.94;4904686;29;20229;-54
2022/11/16 10:48:54;;;;;;;0.00;0.00;;;;;;;11.66;91.20;97519.22;4908597;29;20633;-53
2022/11/16 10:51:22;;;;;;;0.00;0.00;;;;;;;11.86;88.84;97529.06;4906057;29;20249;-53
2022/11/16 10:53:48;;;;;;;0.00;0.00;;;;;;;11.75;88.24;97518.09;4908057;29;20244;-53
2022/11/16 10:56:19;;;;;;;0.00;0.00;;;;;;;11.95;86.59;97513.06;4906193;29;20692;-53
2022/11/16 10:58:51;;;;;;;0.00;0.00;;;;;;;12.04;87.70;97515.56;4908440;29;20578;-53
2022/11/16 11:01:28;;;;;;;0.00;0.00;;;;;;;11.93;89.17;97499.34;4905362;29;20246;-54
2022/11/16 11:03:54;;;;;;;0.00;0.00;;;;;;;11.69;90.28;97504.94;4905714;29;20241;-54
2022/11/16 11:06:24;;;;;;;0.00;0.00;;;;;;;11.61;90.12;97496.25;4908677;29;20233;-53
2022/11/16 11:08:51;;;;;;;0.00;0.00;;;;;;;11.62;89.60;97495.25;4910078;29;20238;-55
2022/11/16 11:14:10;;;;;;;0.00;0.00;;;;;;;11.89;88.18;97490.25;4906378;29;20226;-55
2022/11/16 11:16:38;;;;;;;0.00;0.00;;;;;;;11.90;89.97;97483.25;4907277;29;20562;-54
2022/11/16 11:19:26;;;;;;;0.00;0.00;;;;;;;11.93;88.21;97488.09;4905274;29;20546;-53
2022/11/16 11:21:57;;;;;;;0.00;0.00;;;;;;;12.00;88.23;97490.78;4906527;29;20243;-54
2022/11/16 11:24:25;;;;;;;0.00;0.00;;;;;;;11.96;89.33;97487.72;4891660;29;20247;-53
2022/11/16 11:26:55;;;;;;;0.00;0.00;;;;;;;12.10;89.70;97486.88;4902073;29;20269;-53
2022/11/16 11:29:25;;;;;;;0.00;0.00;;;;;;;12.16;88.25;97487.13;4905948;29;20246;-54
2022/11/16 11:31:55;;;;;;;0.00;0.00;;;;;;;12.20;84.93;97476.06;4907717;29;20314;-56
2022/11/16 11:34:24;;;;;;;0.00;0.00;;;;;;;12.22;84.34;97476.69;4891210;29;20330;-55
2022/11/16 11:36:55;;;;;;;0.00;0.00;;;;;;;12.28;83.81;97463.84;4902576;29;20237;-53
2022/11/16 11:39:35;;;;;;;0.00;0.00;;;;;;;12.44;85.08;97460.13;4906258;29;20245;-54
2022/11/16 11:42:05;;;;;;;0.00;0.00;;;;;;;12.37;83.53;97453.03;4905654;29;20242;-53
2022/11/16 11:44:38;;;;;;;0.00;0.00;;;;;;;12.50;77.64;97452.34;4908829;29;20431;-56
2022/11/16 11:47:20;;;;;;;0.00;0.00;;;;;;;12.60;79.20;97453.81;4904916;29;20232;-54
2022/11/16 11:49:52;;;;;;;0.00;0.00;;;;;;;12.74;77.67;97452.06;4907566;29;20242;-53
2022/11/16 11:52:24;;;;;;;0.00;0.00;;;;;;;12.48;76.13;97454.34;4895365;29;20246;-54
2022/11/16 11:54:54;;;;;;;0.00;0.00;;;;;;;12.84;73.76;97458.53;4907920;29;20247;-56
2022/11/16 11:57:24;;;;;;;0.00;0.00;;;;;;;12.79;76.07;97458.31;4905392;29;20239;-55
2022/11/16 11:59:53;;;;;;;0.00;0.00;;;;;;;12.61;74.30;97450.19;4909138;29;20640;-55
2022/11/16 12:02:38;;;;;;;0.00;0.00;;;;;;;12.60;72.41;97445.94;4908822;29;20250;-54
2022/11/16 12:05:33;;;;;;;0.00;0.00;;;;;;;12.58;72.69;97451.34;4907514;29;20283;-54
2022/11/16 12:08:17;;;;;;;0.00;0.00;;;;;;;12.47;74.30;97446.66;4900275;29;20240;-53
2022/11/16 12:10:50;;;;;;;0.00;0.00;;;;;;;12.50;73.70;97448.88;4911300;29;20723;-53
2022/11/16 12:13:37;;;;;;;0.00;0.00;;;;;;;12.35;76.78;97454.25;4907731;29;20258;-54
2022/11/16 12:16:14;;;;;;;0.00;0.00;;;;;;;12.58;70.37;97442.72;4921344;29;20245;-55
2022/11/16 12:19:13;;;;;;;0.00;0.00;;;;;;;12.61;74.08;97434.47;4911367;29;20248;-55
2022/11/16 12:21:51;;;;;;;0.00;0.00;;;;;;;12.66;69.55;97437.31;4908534;29;20239;-53
2022/11/16 12:24:36;;;;;;;0.00;0.00;;;;;;;12.73;72.64;97425.03;4908591;29;20246;-53
2022/11/16 12:27:15;;;;;;;0.00;0.00;;;;;;;12.63;72.90;97428.03;4908419;29;20261;-53
2022/11/16 12:29:50;;;;;;;0.00;0.00;;;;;;;12.46;75.47;97431.94;4911016;29;20337;-55
2022/11/16 12:32:46;;;;;;;0.00;0.00;;;;;;;12.29;75.36;97437.47;4908021;29;20235;-53
2022/11/16 12:35:33;;;;;;;0.00;0.00;;;;;;;12.24;73.83;97429.41;4896539;29;20327;-55